Aeroboteco Virtual Airlines! Uma nuvem a frente.



 INFORMAÇÕES METEOROLÓGICAS
METAR FOR LEVX
ADDS - METARS form results

(0317 UTC 27 May 2019)
Data provider http://aviationweather.gov/metar/data/
 
METAR text: LEVX 270300Z 02007KT 350V050 CAVOK 12/11 Q1019 NOSIG
Conditions at: LEVX (VIGO/PEINADOR , ES) observed 0300 UTC 27 May 2019
Temperature: 12.0°C (54°F)
Dewpoint: 11.0°C (52°F) [RH = 94%]
Pressure (altimeter): 30.09 inches Hg (1019.0 mb)
Winds: from the NNE (20 degrees) at 8 MPH (7 knots; 3.6 m/s)
Visibility: 6 or more miles (10+ km)
Ceiling: ceiling and visibility are OK
Clouds: unknown
Weather: no significant weather observed at this time

METAR text: LEVX 270230Z 02006KT 340V060 CAVOK 12/11 Q1019 NOSIG
Conditions at: LEVX (VIGO/PEINADOR , ES) observed 0230 UTC 27 May 2019
Temperature: 12.0°C (54°F)
Dewpoint: 11.0°C (52°F) [RH = 94%]
Pressure (altimeter): 30.09 inches Hg (1019.0 mb)
Winds: from the NNE (20 degrees) at 7 MPH (6 knots; 3.1 m/s)
Visibility: 6 or more miles (10+ km)
Ceiling: ceiling and visibility are OK
Clouds: unknown
Weather: no significant weather observed at this time

Forecast for: LEVX (VIGO/PEINADOR , ES)
Text: TAF LEVX 262300Z 2700/2724 35010KT 9999 FEW020 TX22/2714Z TN12/2705Z
Forecast period: 0000 UTC 27 May 2019 to 0000 UTC 28 May 2019
Forecast type: FROM: standard forecast or significant change
Winds: from the N (350 degrees) at 12 MPH (10 knots; 5.1 m/s)
Visibility: 6 or more miles 10+ km)
Ceiling: at least 12,000 feet AGL
Clouds: few clouds at 2000 feet AGL
Weather: no significant weather forecast for this period
Text: TEMPO 2700/2708 VRB02KT
Forecast period: 0000 to 0800 UTC 27 May 2019
Forecast type: TEMPORARY: The following changes expected for less than half the time period
Winds: variable direction winds at 2 MPH (2 knots; 1.0 m/s)
Visibility: missing
Ceiling: unknown
Clouds: missing
Weather: no significant weather forecast for this period
Text: PROB40
Forecast period: 1600 to 1800 UTC 27 May 2019
Forecast type: TEMPORARY: The following changes expected for less than half the time period
Winds: from the N (10 degrees) at 17 MPH (15 knots; 7.7 m/s)
gusting to 29 MPH (25 knots; 12.9 m/s)
Visibility: missing
Ceiling: unknown
Clouds: missing
Weather: no significant weather forecast for this period

 MAPA DO AEROPORTO

 INFORMAÇÕES DA PISTA
Pista 02 Tamanho da pista 7874 ft Largura da pista 148 ft
Elevação da pista 855 ft Ranhura da pista 0 ft Proa da pista 11
Pista 20 Tamanho da pista 7874 ft Largura da pista 148 ft
Elevação da pista 829 ft Ranhura da pista 0 ft Proa da pista 191

 FREQUÊNCIAS DO AEROPORTO
Tipo APP Nome SANTIAGO A Frequência 120.2 MHZ
Tipo GND Nome GND Frequência 121.7 MHZ
Tipo TWR Nome TWR Frequência 118.45 MHZ

 AUXÍLIOS DE NAVEGAÇÃO PRÓXIMOS AO AEROPORTO
Tipo VOR-DME Nome Vigo Frequência 113600 KHZ
Tipo NDB Nome Vigo Frequência 345 KHZ
Tipo NDB Nome Vigo Frequência 433 KHZ